»·PEaware :: N1829L KIFP-KPSP

N1829L :: KIFP-KPSP

FLIGHT INFORMATION

Flight Status: Arrived
Operator: Privately registered:
United States
More flights under this callsign
Pilot: Anonymous 16594 (16594)
Aircraft: PIPER PA-24 COMMANCHE
(PA24)
More flights by this aircraft type
Origin: KIFP Laughlin/Bullhead Intl
United States
Destination: KPSP Palm Springs Intl
United States
More flights between these airports :: More routes between these airports
Route: +
File this flight plan on PilotEdge
Remarks:
Altitude:
(Current/Filed)
0ft
Speed:
(Current/Filed)
0kts
Departed: 13-Jan-18 08:05 PM
Arrived: 13-Jan-18 08:57 PM
Distance/Time
Traveled:
125nm/0:52
Distance/Time
To Go:
Arrived

Flight Plot

Page will automatically refresh every two minutes.

Flight plan parsing failed; only flown route is shown


Map Options




Map Legend


Flown Route
Filed Route
Departure Airport
Arrival Airport
Navaid (VOR, NDB)
Fix

Horizontal Profiles

Position Reports

Time Latitude Longitude Heading Altitude Ground
Speed
13-Jan-18 20:06 35.158365 -114.556837 259 698ft 0kts
13-Jan-18 20:07 35.158268 -114.556901 182 698ft 0kts
13-Jan-18 20:08 35.154378 -114.558114 174 698ft 38kts
13-Jan-18 20:09 35.147344 -114.558014 271 698ft 0kts
13-Jan-18 20:10 35.147344 -114.558023 271 698ft 0kts
13-Jan-18 20:11 35.156894 -114.559743 2 794ft 96kts
13-Jan-18 20:12 35.184446 -114.564689 324 1239ft 118kts
13-Jan-18 20:13 35.179134 -114.606499 253 2274ft 133kts
13-Jan-18 20:14 35.165794 -114.647462 253 3183ft 129kts
13-Jan-18 20:15 35.151243 -114.687248 221 4096ft 130kts
13-Jan-18 20:16 35.119499 -114.710738 208 4952ft 141kts
13-Jan-18 20:17 35.084322 -114.731931 199 5742ft 143kts
13-Jan-18 20:18 35.047296 -114.749205 201 6487ft 143kts
13-Jan-18 20:19 35.017388 -114.781538 225 7004ft 146kts
13-Jan-18 20:20 34.991222 -114.819522 230 7576ft 149kts
13-Jan-18 20:21 34.965101 -114.858295 230 8256ft 148kts
13-Jan-18 20:22 34.938643 -114.897629 230 8513ft 155kts
13-Jan-18 20:23 34.909993 -114.940007 230 8509ft 164kts
13-Jan-18 20:24 34.880832 -114.983032 230 8513ft 164kts
13-Jan-18 20:25 34.851655 -115.026001 230 8523ft 169kts
13-Jan-18 20:26 34.821493 -115.070221 230 8523ft 170kts
13-Jan-18 20:27 34.796228 -115.107099 230 8523ft 169kts
13-Jan-18 20:28 34.760615 -115.158888 229 8527ft 172kts
13-Jan-18 20:29 34.735538 -115.196241 230 8526ft 166kts
13-Jan-18 20:30 34.706675 -115.239657 230 8537ft 167kts
13-Jan-18 20:31 34.671413 -115.292045 230 8542ft 173kts
13-Jan-18 20:32 34.646039 -115.329611 230 8538ft 167kts
13-Jan-18 20:33 34.611979 -115.379817 230 8543ft 164kts
13-Jan-18 20:34 34.587806 -115.415293 230 8549ft 163kts
13-Jan-18 20:35 34.558338 -115.458319 230 8452ft 167kts
13-Jan-18 20:36 34.528385 -115.501837 230 8453ft 167kts
13-Jan-18 20:37 34.498531 -115.545088 230 8458ft 167kts
13-Jan-18 20:38 34.468734 -115.588063 230 8465ft 166kts
13-Jan-18 20:39 34.438811 -115.631086 230 8473ft 169kts
13-Jan-18 20:40 34.408133 -115.674988 230 8476ft 169kts
13-Jan-18 20:41 34.377901 -115.718175 229 8482ft 168kts
13-Jan-18 20:42 34.347545 -115.761229 229 8487ft 167kts
13-Jan-18 20:43 34.317308 -115.804067 229 8495ft 169kts
13-Jan-18 20:44 34.286696 -115.848183 230 8496ft 169kts
13-Jan-18 20:45 34.256499 -115.892135 230 8488ft 171kts
13-Jan-18 20:46 34.225613 -115.936797 230 8489ft 170kts
13-Jan-18 20:47 34.195268 -115.980694 230 8496ft 171kts
13-Jan-18 20:48 34.164260 -116.025272 230 8493ft 170kts
13-Jan-18 20:49 34.134026 -116.068590 230 8492ft 168kts
13-Jan-18 20:50 34.103687 -116.111975 230 8488ft 169kts
13-Jan-18 20:51 34.073108 -116.155346 230 8486ft 170kts
13-Jan-18 20:52 34.041895 -116.199675 229 8347ft 173kts
13-Jan-18 20:53 34.010558 -116.243439 229 7313ft 167kts
13-Jan-18 20:54 33.981298 -116.285002 230 6097ft 159kts
13-Jan-18 20:55 33.953490 -116.323820 230 4957ft 144kts
13-Jan-18 20:56 33.928209 -116.359480 229 3944ft 126kts
13-Jan-18 20:57 33.903034 -116.393321 229 3551ft 140kts
13-Jan-18 20:58 33.877088 -116.427858 229 3437ft 139kts
13-Jan-18 20:59 33.844250 -116.447872 168 2328ft 145kts
13-Jan-18 21:00 33.814424 -116.453645 238 1350ft 107kts
13-Jan-18 21:01 33.806664 -116.479743 292 873ft 82kts
13-Jan-18 21:02 33.822290 -116.498201 323 535ft 68kts
13-Jan-18 21:03 33.828745 -116.503974 324 480ft 1kts
13-Jan-18 21:04 33.829352 -116.503564 74 480ft 10kts
13-Jan-18 21:05 33.824067 -116.498423 86 480ft 14kts
13-Jan-18 21:06 33.824443 -116.497859 58 480ft 0kts

Navigation Log

Ident Type
Flight plan parsing failed, navigation log unavailable